createdAt,value
2022-08-03T00:02:24.382Z,18.00
2022-08-03T00:04:55.144Z,17.90
2022-08-03T00:07:28.746Z,17.90
2022-08-03T00:09:57.575Z,17.80
2022-08-03T00:12:27.903Z,17.80
2022-08-03T00:15:08.368Z,17.70
2022-08-03T00:17:52.568Z,17.60
2022-08-03T00:20:22.095Z,17.50
2022-08-03T00:22:51.692Z,17.40
2022-08-03T00:25:20.852Z,17.40
2022-08-03T00:27:52.446Z,17.40
2022-08-03T00:30:26.906Z,17.30
2022-08-03T00:33:01.599Z,17.30
2022-08-03T00:35:45.860Z,17.20
2022-08-03T00:38:22.124Z,17.20
2022-08-03T00:40:54.688Z,17.20
2022-08-03T00:43:27.882Z,17.20
2022-08-03T00:45:59.721Z,17.20
2022-08-03T00:48:33.627Z,17.30
2022-08-03T00:51:03.146Z,17.20
2022-08-03T00:53:32.455Z,17.20
2022-08-03T00:56:02.577Z,17.20
2022-08-03T00:58:32.943Z,17.20
2022-08-03T01:01:05.143Z,17.20
2022-08-03T01:03:34.636Z,17.20
2022-08-03T01:06:14.160Z,17.10
2022-08-03T01:08:49.469Z,17.10
2022-08-03T01:11:26.945Z,17.20
2022-08-03T01:14:18.655Z,17.20
2022-08-03T01:17:07.548Z,17.20
2022-08-03T01:19:51.172Z,17.20
2022-08-03T01:22:53.041Z,17.20
2022-08-03T01:25:36.522Z,17.20
2022-08-03T01:28:23.928Z,17.20
2022-08-03T01:31:03.372Z,17.20
2022-08-03T01:33:38.464Z,17.10
2022-08-03T01:36:10.909Z,17.10
2022-08-03T01:38:46.191Z,17.10
2022-08-03T01:41:22.453Z,17.10
2022-08-03T01:44:29.336Z,17.10
2022-08-03T01:46:49.510Z,17.10
2022-08-03T01:49:21.567Z,17.10
2022-08-03T01:52:04.086Z,17.10
2022-08-03T01:54:37.606Z,17.10
2022-08-03T01:57:10.997Z,17.00
2022-08-03T01:59:43.408Z,17.00
2022-08-03T02:02:33.101Z,17.00
2022-08-03T02:05:05.717Z,16.90
2022-08-03T02:07:43.963Z,16.80
2022-08-03T02:10:16.401Z,16.80
2022-08-03T02:13:08.787Z,16.70
2022-08-03T02:15:40.773Z,16.80
2022-08-03T02:18:15.733Z,16.80
2022-08-03T02:20:49.870Z,16.80
2022-08-03T02:23:21.057Z,16.80
2022-08-03T02:25:59.857Z,16.80
2022-08-03T02:28:34.759Z,16.80
2022-08-03T02:31:08.297Z,16.80
2022-08-03T02:33:45.045Z,16.80
2022-08-03T02:36:17.252Z,16.80
2022-08-03T02:38:53.260Z,16.80
2022-08-03T02:41:28.562Z,16.90
2022-08-03T02:44:07.147Z,16.80
2022-08-03T02:46:41.944Z,16.80
2022-08-03T02:49:40.462Z,16.70
2022-08-03T02:52:13.076Z,16.60
2022-08-03T02:54:42.971Z,16.70
2022-08-03T02:57:15.395Z,16.60
2022-08-03T02:59:47.223Z,16.60
2022-08-03T03:02:19.382Z,16.60
2022-08-03T03:05:50.715Z,16.60
2022-08-03T03:07:51.406Z,16.60
2022-08-03T03:10:23.851Z,16.60
2022-08-03T03:12:54.668Z,16.60
2022-08-03T03:15:26.070Z,16.60
2022-08-03T03:17:55.838Z,16.60
2022-08-03T03:20:30.124Z,16.50
2022-08-03T03:23:02.521Z,16.50
2022-08-03T03:25:34.035Z,16.50
2022-08-03T03:28:06.356Z,16.50
2022-08-03T03:30:36.526Z,16.50
2022-08-03T03:33:07.650Z,16.50
2022-08-03T03:35:38.974Z,16.50
2022-08-03T03:38:08.478Z,16.50
2022-08-03T03:40:42.313Z,16.60
2022-08-03T03:43:14.290Z,16.60
2022-08-03T03:45:45.476Z,16.70
2022-08-03T03:48:16.853Z,16.80
2022-08-03T03:50:52.026Z,17.10
2022-08-03T03:53:22.823Z,17.30
2022-08-03T03:56:02.638Z,17.50
2022-08-03T03:58:33.447Z,17.90
2022-08-03T04:01:05.044Z,18.20
2022-08-03T04:03:39.771Z,18.30
2022-08-03T04:06:31.366Z,18.20
2022-08-03T04:09:25.551Z,18.20
2022-08-03T04:12:00.377Z,18.20
2022-08-03T04:14:39.819Z,18.70
2022-08-03T04:17:13.218Z,19.70
2022-08-03T04:19:55.127Z,20.70
2022-08-03T04:22:37.473Z,21.60
2022-08-03T04:25:16.071Z,22.10
2022-08-03T04:27:46.271Z,22.70
2022-08-03T04:30:39.418Z,23.20
2022-08-03T04:33:09.540Z,23.60
2022-08-03T04:36:00.979Z,24.20
2022-08-03T04:38:55.268Z,24.70
2022-08-03T04:41:29.969Z,25.20
2022-08-03T04:44:05.067Z,25.50
2022-08-03T04:46:39.814Z,25.70
2022-08-03T04:49:23.365Z,25.70
2022-08-03T04:51:54.270Z,25.70
2022-08-03T04:54:25.535Z,25.30
2022-08-03T04:56:56.778Z,25.50
2022-08-03T04:59:26.193Z,25.20
2022-08-03T05:01:55.441Z,24.90
2022-08-03T05:04:25.919Z,24.60
2022-08-03T05:06:55.126Z,25.20
2022-08-03T05:09:45.782Z,25.60
2022-08-03T05:12:15.752Z,26.00
2022-08-03T05:14:44.388Z,25.70
2022-08-03T05:17:12.901Z,26.40
2022-08-03T05:19:41.679Z,27.40
2022-08-03T05:22:10.875Z,27.20
2022-08-03T05:24:40.712Z,27.00
2022-08-03T05:27:09.322Z,26.70
2022-08-03T05:29:37.870Z,26.40
2022-08-03T05:32:08.420Z,26.10
2022-08-03T05:34:37.162Z,26.50
2022-08-03T05:37:07.939Z,27.50
2022-08-03T05:39:36.650Z,28.00
2022-08-03T05:42:06.704Z,28.40
2022-08-03T05:44:38.830Z,27.90
2022-08-03T05:47:07.580Z,27.80
2022-08-03T05:49:36.087Z,27.30
2022-08-03T05:52:14.239Z,27.20
2022-08-03T05:54:56.199Z,27.40
2022-08-03T05:57:27.833Z,27.60
2022-08-03T05:59:58.593Z,27.60
2022-08-03T06:02:27.796Z,27.50
2022-08-03T06:04:56.557Z,27.20
2022-08-03T06:07:25.263Z,26.90
2022-08-03T06:10:33.627Z,26.80
2022-08-03T06:12:44.938Z,26.30
2022-08-03T06:15:13.564Z,26.20
2022-08-03T06:17:49.106Z,26.50
2022-08-03T06:20:20.138Z,26.90
2022-08-03T06:23:00.486Z,26.90
2022-08-03T06:25:30.939Z,27.00
2022-08-03T06:28:00.901Z,26.80
2022-08-03T06:30:29.429Z,26.50
2022-08-03T06:32:57.930Z,26.10
2022-08-03T06:35:28.010Z,26.10
2022-08-03T06:37:57.147Z,26.20
2022-08-03T06:40:31.226Z,27.20
2022-08-03T06:43:02.614Z,28.30
2022-08-03T06:45:33.278Z,29.70
2022-08-03T06:48:02.991Z,29.50
2022-08-03T06:50:32.183Z,29.00
2022-08-03T06:53:01.211Z,28.50
2022-08-03T06:55:29.895Z,28.00
2022-08-03T06:58:00.000Z,27.90
2022-08-03T07:00:33.540Z,27.40
2022-08-03T07:03:02.107Z,27.50
2022-08-03T07:05:30.821Z,27.70
2022-08-03T07:08:00.151Z,27.60
2022-08-03T07:10:29.066Z,28.00
2022-08-03T07:12:57.556Z,28.20
2022-08-03T07:15:54.599Z,28.50
2022-08-03T07:18:16.039Z,29.50
2022-08-03T07:20:44.859Z,29.50
2022-08-03T07:23:18.900Z,29.70
2022-08-03T07:25:48.078Z,30.30
2022-08-03T07:28:16.808Z,30.30
2022-08-03T07:30:45.368Z,30.10
2022-08-03T07:33:15.325Z,30.50
2022-08-03T07:35:44.044Z,30.70
2022-08-03T07:38:12.710Z,30.40
2022-08-03T07:40:45.991Z,30.30
2022-08-03T07:43:14.793Z,30.70
2022-08-03T07:45:43.917Z,30.30
2022-08-03T07:48:12.826Z,30.30
2022-08-03T07:50:42.737Z,30.30
2022-08-03T07:53:11.326Z,30.10
2022-08-03T07:55:40.017Z,30.30
2022-08-03T07:58:12.418Z,30.10
2022-08-03T08:00:41.177Z,29.90
2022-08-03T08:03:10.204Z,29.80
2022-08-03T08:05:38.924Z,29.80
2022-08-03T08:08:09.288Z,29.70
2022-08-03T08:10:38.070Z,29.30
2022-08-03T08:13:06.596Z,29.10
2022-08-03T08:15:35.116Z,29.10
2022-08-03T08:18:03.646Z,29.00
2022-08-03T08:20:34.870Z,29.10
2022-08-03T08:23:24.189Z,29.00
2022-08-03T08:25:57.967Z,28.80
2022-08-03T08:28:32.608Z,28.80
2022-08-03T08:31:03.481Z,28.90
2022-08-03T08:33:48.290Z,28.70
2022-08-03T08:36:21.052Z,28.70
2022-08-03T08:38:51.917Z,28.60
2022-08-03T08:41:20.632Z,28.40
2022-08-03T08:43:50.244Z,28.50
2022-08-03T08:46:23.846Z,28.40
2022-08-03T08:48:54.904Z,28.20
2022-08-03T08:51:54.847Z,28.30
2022-08-03T08:54:18.108Z,28.20
2022-08-03T08:56:47.254Z,28.10
2022-08-03T08:59:16.362Z,28.30
2022-08-03T09:01:44.986Z,28.30
2022-08-03T09:04:15.023Z,28.30
2022-08-03T09:06:58.603Z,28.40
2022-08-03T09:10:10.775Z,28.30
2022-08-03T09:12:40.835Z,28.00
2022-08-03T09:15:22.618Z,28.00
2022-08-03T09:17:52.775Z,28.00
2022-08-03T09:20:23.513Z,27.70
2022-08-03T09:22:55.675Z,28.00
2022-08-03T09:25:33.815Z,28.20
2022-08-03T09:28:14.373Z,28.10
2022-08-03T09:31:03.151Z,28.00
2022-08-03T09:33:36.198Z,28.20
2022-08-03T09:36:05.188Z,28.10
2022-08-03T09:38:33.682Z,28.10
2022-08-03T09:41:03.663Z,28.30
2022-08-03T09:43:47.679Z,28.40
2022-08-03T09:46:16.225Z,28.20
2022-08-03T09:48:44.740Z,28.10
2022-08-03T09:52:04.999Z,28.20
2022-08-03T09:54:07.597Z,28.30
2022-08-03T09:56:43.114Z,27.90
2022-08-03T09:59:12.593Z,28.20
2022-08-03T10:01:42.789Z,28.20
2022-08-03T10:04:17.071Z,28.30
2022-08-03T10:06:47.077Z,28.30
2022-08-03T10:09:17.701Z,28.10
2022-08-03T10:11:50.502Z,28.10
2022-08-03T10:14:20.175Z,28.10
2022-08-03T10:16:50.282Z,27.60
2022-08-03T10:19:19.515Z,27.80
2022-08-03T10:21:53.359Z,28.20
2022-08-03T10:24:27.581Z,28.50
2022-08-03T10:27:03.604Z,28.70
2022-08-03T10:29:40.237Z,28.80
2022-08-03T10:32:15.757Z,28.90
2022-08-03T10:34:46.320Z,29.00
2022-08-03T10:37:18.562Z,28.50
2022-08-03T10:39:54.699Z,28.80
2022-08-03T10:42:27.288Z,28.60
2022-08-03T10:45:03.968Z,28.30
2022-08-03T10:47:33.741Z,28.40
2022-08-03T10:50:03.011Z,28.60
2022-08-03T10:52:35.996Z,28.70
2022-08-03T10:55:52.442Z,28.80
2022-08-03T10:58:57.373Z,28.90
2022-08-03T11:01:58.990Z,28.80
2022-08-03T11:04:30.337Z,28.70
2022-08-03T11:07:22.455Z,28.70
2022-08-03T11:09:52.911Z,28.70
2022-08-03T11:12:30.213Z,28.60
2022-08-03T11:15:03.592Z,28.50
2022-08-03T11:17:33.969Z,28.40
2022-08-03T11:20:15.616Z,28.60
2022-08-03T11:22:54.638Z,28.80
2022-08-03T11:25:53.060Z,29.00
2022-08-03T11:28:28.505Z,29.10
2022-08-03T11:30:58.457Z,29.10
2022-08-03T11:33:30.763Z,29.20
2022-08-03T11:36:01.751Z,29.40
2022-08-03T11:38:30.524Z,29.50
2022-08-03T11:40:59.074Z,29.50
2022-08-03T11:43:46.871Z,29.40
2022-08-03T11:46:29.616Z,29.50
2022-08-03T11:49:10.494Z,29.60
2022-08-03T11:51:40.644Z,29.50
2022-08-03T11:54:09.524Z,29.60
2022-08-03T11:56:48.939Z,29.80
2022-08-03T11:59:22.293Z,29.60
2022-08-03T12:01:53.222Z,29.50
2022-08-03T12:04:21.723Z,29.50
2022-08-03T12:07:00.594Z,29.50
2022-08-03T12:09:29.142Z,29.40
2022-08-03T12:12:00.137Z,29.20
2022-08-03T12:14:48.638Z,29.10
2022-08-03T12:17:22.383Z,29.10
2022-08-03T12:19:51.206Z,29.00
2022-08-03T12:22:33.314Z,29.10
2022-08-03T12:25:01.914Z,29.20
2022-08-03T12:27:32.267Z,29.20
2022-08-03T12:30:02.085Z,29.30
2022-08-03T12:32:34.393Z,29.40
2022-08-03T12:35:04.679Z,29.40
2022-08-03T12:37:34.125Z,29.50
2022-08-03T12:40:10.219Z,29.40
2022-08-03T12:42:40.567Z,29.20
2022-08-03T12:45:23.211Z,29.20
2022-08-03T12:47:57.435Z,29.40
2022-08-03T12:50:31.454Z,29.50
2022-08-03T12:53:01.613Z,29.20
2022-08-03T12:55:56.319Z,29.40
2022-08-03T12:58:36.337Z,29.60
2022-08-03T13:01:10.302Z,29.60
2022-08-03T13:03:49.702Z,29.20
2022-08-03T13:06:20.018Z,29.20
2022-08-03T13:08:49.403Z,29.40
2022-08-03T13:11:22.878Z,29.60
2022-08-03T13:14:15.343Z,29.80
2022-08-03T13:16:48.214Z,29.80
2022-08-03T13:19:18.189Z,29.70
2022-08-03T13:22:01.866Z,29.60
2022-08-03T13:24:33.995Z,29.50
2022-08-03T13:28:02.727Z,29.50
2022-08-03T13:29:54.139Z,29.40
2022-08-03T13:32:23.190Z,29.30
2022-08-03T13:34:53.189Z,29.20
2022-08-03T13:37:22.248Z,29.10
2022-08-03T13:39:59.147Z,29.10
2022-08-03T13:42:31.035Z,29.10
2022-08-03T13:44:59.816Z,29.10
2022-08-03T13:47:28.906Z,29.10
2022-08-03T13:50:02.757Z,29.10
2022-08-03T13:52:34.815Z,29.00
2022-08-03T13:55:05.671Z,29.00
2022-08-03T13:58:06.630Z,29.10
2022-08-03T14:00:29.264Z,29.20
2022-08-03T14:03:13.806Z,29.30
2022-08-03T14:05:45.241Z,29.30
2022-08-03T14:08:14.099Z,29.20
2022-08-03T14:10:44.999Z,29.30
2022-08-03T14:13:17.739Z,29.30
2022-08-03T14:15:51.019Z,29.30
2022-08-03T14:18:28.608Z,29.30
2022-08-03T14:21:06.277Z,29.30
2022-08-03T14:23:35.874Z,29.30
2022-08-03T14:26:04.844Z,29.30
2022-08-03T14:28:33.365Z,29.30
2022-08-03T14:31:02.657Z,29.40
2022-08-03T14:33:31.229Z,29.30
2022-08-03T14:36:00.084Z,29.10
2022-08-03T14:38:29.969Z,29.00
2022-08-03T14:40:58.573Z,29.10
2022-08-03T14:43:33.724Z,29.20
2022-08-03T14:46:03.223Z,29.20
2022-08-03T14:50:32.309Z,29.10
2022-08-03T14:51:20.348Z,29.10
2022-08-03T14:53:50.216Z,29.00
2022-08-03T14:56:19.380Z,29.10
2022-08-03T14:58:48.557Z,29.10
2022-08-03T15:02:02.091Z,29.10
2022-08-03T15:04:05.951Z,29.00
2022-08-03T15:06:34.456Z,29.10
2022-08-03T15:09:22.502Z,29.20
2022-08-03T15:11:51.876Z,29.10
2022-08-03T15:14:28.254Z,29.20
2022-08-03T15:17:01.282Z,29.20
2022-08-03T15:20:01.030Z,29.20
2022-08-03T15:22:20.599Z,29.10
2022-08-03T15:24:56.383Z,29.10
2022-08-03T15:27:25.634Z,29.00
2022-08-03T15:30:07.909Z,29.00
2022-08-03T15:32:38.894Z,29.10
2022-08-03T15:35:08.329Z,29.10
2022-08-03T15:37:37.002Z,29.10
2022-08-03T15:40:07.984Z,29.10
2022-08-03T15:42:36.702Z,29.00
2022-08-03T15:45:06.546Z,29.00
2022-08-03T15:47:35.506Z,29.00
2022-08-03T15:50:07.919Z,29.10
2022-08-03T15:52:38.365Z,29.10
2022-08-03T15:55:09.711Z,29.10
2022-08-03T15:59:10.239Z,29.00
2022-08-03T16:00:33.943Z,28.90
2022-08-03T16:03:02.853Z,28.90
2022-08-03T16:05:31.436Z,29.00
2022-08-03T16:08:04.025Z,29.00
2022-08-03T16:10:34.985Z,29.00
2022-08-03T16:13:03.516Z,29.00
2022-08-03T16:15:32.018Z,29.00
2022-08-03T16:18:10.058Z,29.00
2022-08-03T16:20:48.015Z,29.00
2022-08-03T16:23:20.129Z,29.00
2022-08-03T16:25:52.918Z,28.90
2022-08-03T16:28:22.992Z,28.90
2022-08-03T16:30:55.620Z,28.90
2022-08-03T16:33:24.477Z,28.90
2022-08-03T16:35:53.392Z,28.90
2022-08-03T16:38:25.665Z,28.90
2022-08-03T16:40:58.446Z,28.90
2022-08-03T16:43:31.756Z,28.90
2022-08-03T16:46:02.487Z,28.90
2022-08-03T16:48:34.679Z,28.80
2022-08-03T16:51:06.643Z,28.80
2022-08-03T16:54:05.387Z,28.70
2022-08-03T16:56:40.781Z,28.70
2022-08-03T16:59:13.904Z,28.70
2022-08-03T17:01:44.442Z,28.60
2022-08-03T17:04:16.676Z,28.60
2022-08-03T17:06:47.059Z,28.50
2022-08-03T17:09:20.555Z,28.50
2022-08-03T17:11:52.849Z,28.50
2022-08-03T17:14:29.512Z,28.50
2022-08-03T17:17:05.499Z,28.40
2022-08-03T17:19:41.703Z,28.40
2022-08-03T17:22:21.989Z,28.30
2022-08-03T17:24:57.394Z,28.30
2022-08-03T17:28:50.493Z,28.30
2022-08-03T17:30:44.284Z,28.20
2022-08-03T17:33:20.339Z,28.10
2022-08-03T17:35:56.547Z,28.00
2022-08-03T17:38:34.716Z,28.00
2022-08-03T17:41:10.891Z,28.00
2022-08-03T17:44:13.511Z,27.90
2022-08-03T17:46:44.470Z,27.70
2022-08-03T17:49:24.776Z,27.60
2022-08-03T17:51:59.502Z,27.50
2022-08-03T17:55:56.629Z,27.40
2022-08-03T17:58:02.695Z,27.20
2022-08-03T18:00:53.245Z,27.20
2022-08-03T18:03:30.916Z,27.00
2022-08-03T18:06:28.556Z,26.90
2022-08-03T18:09:05.418Z,26.80
2022-08-03T18:11:58.082Z,26.80
2022-08-03T18:14:38.985Z,26.70
2022-08-03T18:17:16.575Z,26.60
2022-08-03T18:20:02.903Z,26.50
2022-08-03T18:22:43.049Z,26.40
2022-08-03T18:25:43.137Z,26.30
2022-08-03T18:28:19.274Z,26.20
2022-08-03T18:30:54.206Z,26.00
2022-08-03T18:34:19.400Z,25.90
2022-08-03T18:36:31.018Z,25.80
2022-08-03T18:39:03.233Z,25.80
2022-08-03T18:41:35.438Z,25.70
2022-08-03T18:44:46.476Z,25.70
2022-08-03T18:47:16.817Z,25.70
2022-08-03T18:50:04.112Z,25.60
2022-08-03T18:52:45.818Z,25.50
2022-08-03T18:55:33.096Z,25.40
2022-08-03T18:58:18.145Z,25.30
2022-08-03T19:00:59.671Z,25.20
2022-08-03T19:03:42.988Z,25.10
2022-08-03T19:06:32.033Z,25.00
2022-08-03T19:09:09.427Z,25.00
2022-08-03T19:12:14.356Z,24.90
2022-08-03T19:14:43.509Z,24.80
2022-08-03T19:17:21.369Z,24.70
2022-08-03T19:19:56.702Z,24.60
2022-08-03T19:22:39.678Z,24.60
2022-08-03T19:25:15.994Z,24.60
2022-08-03T19:27:49.694Z,24.50
2022-08-03T19:30:38.745Z,24.50
2022-08-03T19:33:13.300Z,24.30
2022-08-03T19:35:54.868Z,24.20
2022-08-03T19:38:29.974Z,24.20
2022-08-03T19:41:04.344Z,24.10
2022-08-03T19:43:53.817Z,24.10
2022-08-03T19:46:32.065Z,24.00
2022-08-03T19:49:10.572Z,24.00
2022-08-03T19:52:00.839Z,24.00
2022-08-03T19:54:53.322Z,24.00
2022-08-03T19:57:32.005Z,24.00
2022-08-03T20:00:05.677Z,24.00
2022-08-03T20:02:43.072Z,24.00
2022-08-03T20:05:16.617Z,24.00
2022-08-03T20:07:49.487Z,23.90
2022-08-03T20:10:24.075Z,23.80
2022-08-03T20:12:55.564Z,23.70
2022-08-03T20:15:31.103Z,23.60
2022-08-03T20:18:03.355Z,23.50
2022-08-03T20:20:39.626Z,23.50
2022-08-03T20:23:25.942Z,23.30
2022-08-03T20:26:11.656Z,23.00
2022-08-03T20:28:56.243Z,22.70
2022-08-03T20:31:32.380Z,22.50
2022-08-03T20:34:18.692Z,22.40
2022-08-03T20:36:53.353Z,22.30
2022-08-03T20:39:25.291Z,22.10
2022-08-03T20:42:04.565Z,22.00
2022-08-03T20:44:34.922Z,22.00
2022-08-03T20:47:09.561Z,21.90
2022-08-03T20:49:45.530Z,21.90
2022-08-03T20:52:19.309Z,21.90
2022-08-03T20:57:41.092Z,21.80
2022-08-03T21:00:22.000Z,21.80
2022-08-03T21:02:55.104Z,21.70
2022-08-03T21:05:48.320Z,21.70
2022-08-03T21:08:25.722Z,21.70
2022-08-03T21:11:00.889Z,21.70
2022-08-03T21:13:47.066Z,21.70
2022-08-03T21:16:21.794Z,21.60
2022-08-03T21:18:54.468Z,21.60
2022-08-03T21:21:26.125Z,21.60
2022-08-03T21:23:58.529Z,21.50
2022-08-03T21:26:32.127Z,21.40
2022-08-03T21:29:02.603Z,21.40
2022-08-03T21:31:31.332Z,21.30
2022-08-03T21:34:08.717Z,21.30
2022-08-03T21:36:41.053Z,21.40
2022-08-03T21:39:15.142Z,21.30
2022-08-03T21:41:45.239Z,21.40
2022-08-03T21:44:25.151Z,21.30
2022-08-03T21:47:01.665Z,21.30
2022-08-03T21:50:06.777Z,21.30
2022-08-03T21:52:25.089Z,21.30
2022-08-03T21:54:57.411Z,21.20
2022-08-03T21:57:28.071Z,21.20
2022-08-03T22:00:07.460Z,21.10
2022-08-03T22:02:54.832Z,21.10
2022-08-03T22:05:42.698Z,21.00
2022-08-03T22:08:15.174Z,20.90
2022-08-03T22:10:45.955Z,20.90
2022-08-03T22:13:43.769Z,20.80
2022-08-03T22:16:24.879Z,20.80
2022-08-03T22:18:56.399Z,20.80
2022-08-03T22:21:36.121Z,20.70
2022-08-03T22:24:08.761Z,20.70
2022-08-03T22:27:01.332Z,20.70
2022-08-03T22:29:31.247Z,20.60
2022-08-03T22:32:04.828Z,20.60
2022-08-03T22:34:35.994Z,20.50
2022-08-03T22:37:07.678Z,20.50
2022-08-03T22:39:41.133Z,20.50
2022-08-03T22:42:11.541Z,20.50
2022-08-03T22:44:40.781Z,20.50
2022-08-03T22:47:12.008Z,20.40
2022-08-03T22:49:41.330Z,20.40
2022-08-03T22:52:12.747Z,20.30
2022-08-03T22:54:42.368Z,20.30
2022-08-03T22:57:11.496Z,20.20
2022-08-03T22:59:42.140Z,20.20
2022-08-03T23:02:21.331Z,20.20
2022-08-03T23:04:53.156Z,20.10
2022-08-03T23:07:25.990Z,20.10
2022-08-03T23:09:55.076Z,20.10
2022-08-03T23:12:25.595Z,20.00
2022-08-03T23:14:58.905Z,20.00
2022-08-03T23:17:32.050Z,20.10
2022-08-03T23:20:04.884Z,20.00
2022-08-03T23:22:35.866Z,20.00
2022-08-03T23:25:08.107Z,19.90
2022-08-03T23:27:40.384Z,19.90
2022-08-03T23:30:13.430Z,19.80
2022-08-03T23:32:46.526Z,19.80
2022-08-03T23:36:27.889Z,19.80
2022-08-03T23:38:31.679Z,19.80
2022-08-03T23:41:03.777Z,19.80
2022-08-03T23:43:51.439Z,19.70
2022-08-03T23:46:22.857Z,19.70
2022-08-03T23:48:56.451Z,19.70
2022-08-03T23:51:48.787Z,19.70
2022-08-03T23:54:32.015Z,19.70
2022-08-03T23:57:08.773Z,19.70
2022-08-03T23:59:49.793Z,19.70
